createdAt,value
2022-09-24T00:00:28.903Z,4.10
2022-09-24T00:01:29.037Z,4.90
2022-09-24T00:02:28.935Z,4.00
2022-09-24T00:03:28.882Z,9.90
2022-09-24T00:04:28.851Z,3.90
2022-09-24T00:05:28.858Z,5.50
2022-09-24T00:06:28.840Z,5.80
2022-09-24T00:07:28.847Z,4.70
2022-09-24T00:08:28.821Z,6.60
2022-09-24T00:09:28.793Z,4.70
2022-09-24T00:10:28.794Z,4.00
2022-09-24T00:11:28.819Z,4.90
2022-09-24T00:12:28.793Z,6.00
2022-09-24T00:13:28.762Z,3.40
2022-09-24T00:14:28.792Z,5.20
2022-09-24T00:15:28.735Z,4.50
2022-09-24T00:16:28.769Z,4.30
2022-09-24T00:17:28.732Z,3.20
2022-09-24T00:18:28.699Z,3.50
2022-09-24T00:19:28.711Z,3.90
2022-09-24T00:20:28.682Z,4.60
2022-09-24T00:21:28.675Z,3.70
2022-09-24T00:22:28.685Z,5.40
2022-09-24T00:23:28.649Z,5.50
2022-09-24T00:24:28.641Z,7.00
2022-09-24T00:25:28.636Z,4.90
2022-09-24T00:26:28.618Z,5.70
2022-09-24T00:27:28.619Z,4.00
2022-09-24T00:28:28.624Z,6.70
2022-09-24T00:29:28.587Z,5.20
2022-09-24T00:30:28.595Z,6.00
2022-09-24T00:31:28.634Z,3.60
2022-09-24T00:32:28.571Z,5.20
2022-09-24T00:33:28.535Z,4.70
2022-09-24T00:34:28.541Z,3.90
2022-09-24T00:35:28.513Z,3.80
2022-09-24T00:36:28.514Z,6.70
2022-09-24T00:37:28.519Z,7.20
2022-09-24T00:38:28.492Z,4.90
2022-09-24T00:39:28.473Z,5.30
2022-09-24T00:40:28.545Z,5.20
2022-09-24T00:41:28.458Z,3.50
2022-09-24T00:42:28.431Z,9.80
2022-09-24T00:43:28.437Z,4.30
2022-09-24T00:44:28.422Z,5.90
2022-09-24T00:45:28.429Z,6.80
2022-09-24T00:46:28.675Z,5.00
2022-09-24T00:47:28.392Z,7.70
2022-09-24T00:48:28.386Z,4.70
2022-09-24T00:49:28.417Z,6.80
2022-09-24T00:50:28.355Z,5.70
2022-09-24T00:51:28.344Z,7.80
2022-09-24T00:52:28.329Z,4.10
2022-09-24T00:53:28.330Z,5.70
2022-09-24T00:54:28.310Z,6.10
2022-09-24T00:55:28.299Z,6.60
2022-09-24T00:56:28.288Z,4.90
2022-09-24T00:57:28.276Z,4.70
2022-09-24T00:58:28.284Z,6.30
2022-09-24T00:59:28.250Z,7.50
2022-09-24T01:00:28.337Z,7.10
2022-09-24T01:01:28.358Z,4.90
2022-09-24T01:02:28.282Z,7.30
2022-09-24T01:03:28.243Z,6.30
2022-09-24T01:04:28.206Z,7.40
2022-09-24T01:05:28.190Z,5.60
2022-09-24T01:06:28.190Z,5.00
2022-09-24T01:07:28.165Z,5.30
2022-09-24T01:08:28.179Z,7.00
2022-09-24T01:09:28.149Z,6.70
2022-09-24T01:10:28.128Z,6.50
2022-09-24T01:11:28.121Z,6.90
2022-09-24T01:12:28.115Z,5.20
2022-09-24T01:13:28.109Z,6.20
2022-09-24T01:14:28.094Z,7.20
2022-09-24T01:15:28.077Z,5.60
2022-09-24T01:16:28.230Z,5.10
2022-09-24T01:17:28.055Z,7.70
2022-09-24T01:18:28.077Z,6.60
2022-09-24T01:19:28.050Z,5.50
2022-09-24T01:20:28.035Z,5.40
2022-09-24T01:21:28.013Z,4.90
2022-09-24T01:22:28.022Z,6.00
2022-09-24T01:23:28.005Z,6.60
2022-09-24T01:24:27.990Z,5.20
2022-09-24T01:25:27.996Z,7.40
2022-09-24T01:26:27.960Z,6.60
2022-09-24T01:27:27.939Z,6.00
2022-09-24T01:28:27.946Z,7.00
2022-09-24T01:29:27.943Z,8.00
2022-09-24T01:30:27.935Z,6.40
2022-09-24T01:31:27.956Z,6.50
2022-09-24T01:32:32.328Z,6.10
2022-09-24T01:33:27.909Z,6.10
2022-09-24T01:34:27.871Z,5.30
2022-09-24T01:35:27.863Z,4.20
2022-09-24T01:36:27.866Z,6.60
2022-09-24T01:37:27.847Z,4.80
2022-09-24T01:38:27.890Z,6.20
2022-09-24T01:39:27.834Z,8.30
2022-09-24T01:40:27.852Z,5.50
2022-09-24T01:41:27.789Z,6.10
2022-09-24T01:42:27.799Z,7.60
2022-09-24T01:43:27.807Z,6.80
2022-09-24T01:44:27.764Z,8.60
2022-09-24T01:45:27.759Z,5.30
2022-09-24T01:46:27.780Z,6.80
2022-09-24T01:47:32.197Z,7.20
2022-09-24T01:48:27.736Z,9.20
2022-09-24T01:49:27.705Z,8.40
2022-09-24T01:50:27.710Z,5.70
2022-09-24T01:51:27.693Z,7.60
2022-09-24T01:52:27.708Z,6.60
2022-09-24T01:53:27.689Z,5.50
2022-09-24T01:54:27.655Z,5.30
2022-09-24T01:55:27.648Z,5.50
2022-09-24T01:56:27.634Z,6.10
2022-09-24T01:57:27.626Z,6.00
2022-09-24T01:58:27.631Z,7.40
2022-09-24T01:59:27.597Z,5.40
2022-09-24T02:00:27.584Z,7.50
2022-09-24T02:01:27.600Z,6.50
2022-09-24T02:02:27.759Z,6.90
2022-09-24T02:03:27.582Z,5.20
2022-09-24T02:04:27.569Z,5.30
2022-09-24T02:05:27.548Z,12.60
2022-09-24T02:06:27.534Z,5.80
2022-09-24T02:07:27.521Z,5.20
2022-09-24T02:08:27.525Z,5.50
2022-09-24T02:09:27.488Z,6.00
2022-09-24T02:10:27.491Z,6.70
2022-09-24T02:11:27.465Z,6.60
2022-09-24T02:12:27.461Z,4.50
2022-09-24T02:13:27.464Z,7.00
2022-09-24T02:14:27.440Z,5.00
2022-09-24T02:15:32.061Z,6.50
2022-09-24T02:16:27.490Z,9.70
2022-09-24T02:17:27.396Z,5.60
2022-09-24T02:18:27.398Z,7.50
2022-09-24T02:19:27.391Z,5.90
2022-09-24T02:20:27.371Z,5.40
2022-09-24T02:21:27.358Z,6.10
2022-09-24T02:22:27.360Z,6.50
2022-09-24T02:23:27.352Z,6.50
2022-09-24T02:24:27.326Z,7.30
2022-09-24T02:25:27.310Z,7.20
2022-09-24T02:26:27.309Z,8.80
2022-09-24T02:27:27.293Z,6.00
2022-09-24T02:28:27.298Z,6.80
2022-09-24T02:29:27.277Z,6.10
2022-09-24T02:30:27.252Z,7.10
2022-09-24T02:31:27.335Z,6.70
2022-09-24T02:32:27.241Z,9.20
2022-09-24T02:33:27.258Z,7.90
2022-09-24T02:34:27.229Z,9.40
2022-09-24T02:35:27.198Z,7.80
2022-09-24T02:36:27.201Z,6.30
2022-09-24T02:37:27.178Z,10.80
2022-09-24T02:38:27.204Z,6.80
2022-09-24T02:39:27.160Z,9.00
2022-09-24T02:40:27.188Z,6.90
2022-09-24T02:41:27.139Z,9.70
2022-09-24T02:42:27.137Z,6.60
2022-09-24T02:43:27.126Z,7.40
2022-09-24T02:44:27.105Z,7.00
2022-09-24T02:45:27.108Z,7.70
2022-09-24T02:46:27.139Z,5.30
2022-09-24T02:47:27.090Z,7.00
2022-09-24T02:48:27.082Z,6.90
2022-09-24T02:49:27.075Z,8.70
2022-09-24T02:50:27.050Z,8.60
2022-09-24T02:51:27.024Z,7.40
2022-09-24T02:52:27.026Z,6.00
2022-09-24T02:53:27.037Z,9.30
2022-09-24T02:54:27.007Z,7.30
2022-09-24T02:55:26.979Z,7.30
2022-09-24T02:56:26.993Z,6.50
2022-09-24T02:57:26.965Z,7.80
2022-09-24T02:58:26.972Z,9.20
2022-09-24T02:59:26.949Z,8.60
2022-09-24T03:00:26.937Z,8.60
2022-09-24T03:01:27.016Z,9.60
2022-09-24T03:02:27.121Z,6.40
2022-09-24T03:03:26.917Z,12.30
2022-09-24T03:04:26.902Z,8.50
2022-09-24T03:05:26.880Z,9.10
2022-09-24T03:06:26.872Z,9.10
2022-09-24T03:07:26.853Z,8.90
2022-09-24T03:08:26.863Z,10.10
2022-09-24T03:09:26.832Z,9.80
2022-09-24T03:10:26.826Z,10.10
2022-09-24T03:11:26.845Z,8.80
2022-09-24T03:12:26.807Z,9.70
2022-09-24T03:13:26.799Z,12.20
2022-09-24T03:14:26.775Z,9.90
2022-09-24T03:15:26.777Z,12.40
2022-09-24T03:16:26.824Z,11.90
2022-09-24T03:17:26.744Z,14.20
2022-09-24T03:18:26.791Z,13.20
2022-09-24T03:19:26.726Z,10.60
2022-09-24T03:20:26.713Z,12.70
2022-09-24T03:21:26.705Z,10.60
2022-09-24T03:22:26.711Z,10.00
2022-09-24T03:23:26.726Z,10.10
2022-09-24T03:24:26.702Z,11.80
2022-09-24T03:25:26.666Z,11.60
2022-09-24T03:26:26.668Z,11.70
2022-09-24T03:27:26.652Z,15.60
2022-09-24T03:28:26.644Z,13.10
2022-09-24T03:29:26.629Z,14.10
2022-09-24T03:30:26.625Z,11.70
2022-09-24T03:31:26.655Z,13.80
2022-09-24T03:32:26.585Z,16.70
2022-09-24T03:33:26.582Z,14.20
2022-09-24T03:34:26.590Z,16.00
2022-09-24T03:35:26.564Z,16.50
2022-09-24T03:36:26.552Z,15.30
2022-09-24T03:37:26.534Z,15.40
2022-09-24T03:38:26.520Z,14.00
2022-09-24T03:39:26.536Z,16.80
2022-09-24T03:40:26.541Z,16.20
2022-09-24T03:41:26.490Z,13.20
2022-09-24T03:42:26.475Z,13.40
2022-09-24T03:43:26.480Z,16.00
2022-09-24T03:44:26.473Z,14.70
2022-09-24T03:45:26.452Z,17.20
2022-09-24T03:46:26.488Z,14.80
2022-09-24T03:47:26.427Z,11.50
2022-09-24T03:48:26.425Z,13.60
2022-09-24T03:49:26.420Z,12.90
2022-09-24T03:50:26.389Z,27.10
2022-09-24T03:51:26.391Z,12.20
2022-09-24T03:52:26.370Z,13.60
2022-09-24T03:53:26.390Z,13.40
2022-09-24T03:54:26.364Z,13.90
2022-09-24T03:55:26.330Z,12.90
2022-09-24T03:56:26.328Z,12.90
2022-09-24T03:57:26.312Z,14.10
2022-09-24T03:58:26.351Z,13.80
2022-09-24T03:59:26.311Z,14.30
2022-09-24T04:00:26.391Z,16.60
2022-09-24T04:01:26.323Z,19.80
2022-09-24T04:02:26.317Z,16.70
2022-09-24T04:03:26.334Z,19.70
2022-09-24T04:04:26.259Z,17.80
2022-09-24T04:05:26.263Z,17.50
2022-09-24T04:06:26.239Z,19.10
2022-09-24T04:07:26.211Z,19.40
2022-09-24T04:08:26.225Z,18.60
2022-09-24T04:09:26.192Z,16.90
2022-09-24T04:10:26.173Z,18.70
2022-09-24T04:11:26.152Z,20.50
2022-09-24T04:12:26.153Z,22.70
2022-09-24T04:13:26.151Z,18.90
2022-09-24T04:14:26.137Z,22.70
2022-09-24T04:15:26.114Z,20.00
2022-09-24T04:16:26.280Z,18.10
2022-09-24T04:17:26.102Z,22.70
2022-09-24T04:18:26.199Z,20.00
2022-09-24T04:19:26.094Z,20.90
2022-09-24T04:20:26.115Z,19.20
2022-09-24T04:21:26.071Z,20.60
2022-09-24T04:22:26.040Z,18.70
2022-09-24T04:23:26.026Z,20.80
2022-09-24T04:24:26.038Z,21.90
2022-09-24T04:25:26.015Z,18.50
2022-09-24T04:26:25.996Z,18.50
2022-09-24T04:27:25.988Z,21.80
2022-09-24T04:28:25.979Z,19.00
2022-09-24T04:29:25.974Z,16.30
2022-09-24T04:30:25.950Z,20.10
2022-09-24T04:31:26.068Z,19.00
2022-09-24T04:32:25.924Z,20.20
2022-09-24T04:33:25.912Z,17.70
2022-09-24T04:34:25.926Z,20.20
2022-09-24T04:35:25.893Z,16.20
2022-09-24T04:36:25.887Z,19.10
2022-09-24T04:37:25.873Z,16.40
2022-09-24T04:38:25.868Z,18.50
2022-09-24T04:39:25.864Z,18.30
2022-09-24T04:40:25.887Z,17.60
2022-09-24T04:41:25.824Z,18.70
2022-09-24T04:42:25.827Z,16.80
2022-09-24T04:43:25.811Z,17.50
2022-09-24T04:44:25.821Z,17.00
2022-09-24T04:45:25.790Z,17.40
2022-09-24T04:46:25.881Z,15.00
2022-09-24T04:47:25.762Z,15.80
2022-09-24T04:48:25.761Z,16.10
2022-09-24T04:49:25.767Z,17.70
2022-09-24T04:50:25.844Z,18.60
2022-09-24T04:51:25.716Z,17.80
2022-09-24T04:52:25.715Z,17.60
2022-09-24T04:53:25.697Z,19.10
2022-09-24T04:54:25.709Z,17.50
2022-09-24T04:55:25.685Z,19.00
2022-09-24T04:56:25.683Z,16.90
2022-09-24T04:57:25.662Z,14.80
2022-09-24T04:58:25.646Z,18.20
2022-09-24T04:59:25.646Z,17.20
2022-09-24T05:00:25.628Z,16.10
2022-09-24T05:01:25.660Z,15.60
2022-09-24T05:02:25.674Z,17.50
2022-09-24T05:03:25.589Z,16.60
2022-09-24T05:04:25.595Z,16.10
2022-09-24T05:05:25.558Z,14.00
2022-09-24T05:06:25.560Z,17.20
2022-09-24T05:07:25.550Z,13.80
2022-09-24T05:08:25.537Z,14.90
2022-09-24T05:09:25.545Z,15.10
2022-09-24T05:10:25.517Z,13.30
2022-09-24T05:11:25.497Z,14.80
2022-09-24T05:12:25.504Z,14.90
2022-09-24T05:13:25.513Z,16.20
2022-09-24T05:14:25.504Z,19.00
2022-09-24T05:15:25.585Z,14.20
2022-09-24T05:16:32.048Z,14.40
2022-09-24T05:17:25.443Z,17.40
2022-09-24T05:18:25.430Z,13.40
2022-09-24T05:19:25.435Z,13.10
2022-09-24T05:20:25.431Z,15.40
2022-09-24T05:21:25.507Z,14.00
2022-09-24T05:22:25.391Z,12.40
2022-09-24T05:23:25.385Z,11.90
2022-09-24T05:24:25.387Z,12.00
2022-09-24T05:25:25.387Z,12.30
2022-09-24T05:26:25.352Z,13.90
2022-09-24T05:27:25.335Z,11.40
2022-09-24T05:28:25.325Z,12.30
2022-09-24T05:29:25.329Z,13.50
2022-09-24T05:30:25.320Z,12.10
2022-09-24T05:31:25.429Z,14.70
2022-09-24T05:32:25.316Z,13.90
2022-09-24T05:33:25.268Z,10.70
2022-09-24T05:34:25.291Z,12.40
2022-09-24T05:35:25.246Z,14.00
2022-09-24T05:36:25.268Z,12.70
2022-09-24T05:37:25.225Z,12.30
2022-09-24T05:38:25.225Z,13.30
2022-09-24T05:39:27.947Z,12.40
2022-09-24T05:40:25.263Z,14.10
2022-09-24T05:41:25.177Z,10.70
2022-09-24T05:42:25.194Z,13.30
2022-09-24T05:43:25.169Z,10.60
2022-09-24T05:44:25.200Z,11.40
2022-09-24T05:45:25.138Z,13.10
2022-09-24T05:46:25.177Z,11.20
2022-09-24T05:47:25.112Z,13.20
2022-09-24T05:48:25.110Z,9.60
2022-09-24T05:49:25.123Z,11.60
2022-09-24T05:50:25.095Z,11.40
2022-09-24T05:51:25.079Z,12.00
2022-09-24T05:52:25.067Z,11.10
2022-09-24T05:53:25.053Z,12.40
2022-09-24T05:54:25.079Z,11.80
2022-09-24T05:55:28.736Z,9.50
2022-09-24T05:56:25.024Z,10.60
2022-09-24T05:57:25.029Z,10.70
2022-09-24T05:58:25.014Z,9.60
2022-09-24T05:59:24.995Z,11.60
2022-09-24T06:00:24.980Z,10.20
2022-09-24T06:01:25.073Z,11.30
2022-09-24T06:02:25.039Z,13.00
2022-09-24T06:03:24.985Z,10.60
2022-09-24T06:04:24.956Z,11.30
2022-09-24T06:05:24.936Z,9.80
2022-09-24T06:06:24.917Z,9.20
2022-09-24T06:07:24.896Z,8.40
2022-09-24T06:08:24.891Z,9.80
2022-09-24T06:09:24.898Z,9.80
2022-09-24T06:10:24.874Z,13.40
2022-09-24T06:11:24.873Z,9.00
2022-09-24T06:12:24.849Z,10.60
2022-09-24T06:13:24.832Z,11.10
2022-09-24T06:14:24.838Z,9.60
2022-09-24T06:15:24.811Z,9.20
2022-09-24T06:16:24.891Z,8.40
2022-09-24T06:17:24.798Z,10.90
2022-09-24T06:18:24.782Z,9.00
2022-09-24T06:19:24.800Z,11.60
2022-09-24T06:20:24.762Z,8.60
2022-09-24T06:21:24.749Z,10.20
2022-09-24T06:22:28.362Z,9.40
2022-09-24T06:23:24.763Z,9.30
2022-09-24T06:24:24.739Z,9.80
2022-09-24T06:25:24.712Z,9.10
2022-09-24T06:26:24.698Z,8.20
2022-09-24T06:27:24.679Z,8.90
2022-09-24T06:28:24.680Z,10.70
2022-09-24T06:29:24.698Z,10.00
2022-09-24T06:30:24.652Z,9.80
2022-09-24T06:31:24.670Z,9.20
2022-09-24T06:32:24.635Z,12.50
2022-09-24T06:33:24.614Z,8.80
2022-09-24T06:34:24.624Z,9.50
2022-09-24T06:35:24.594Z,9.20
2022-09-24T06:36:24.585Z,12.10
2022-09-24T06:37:24.583Z,12.50
2022-09-24T06:38:24.567Z,11.80
2022-09-24T06:39:24.574Z,13.30
2022-09-24T06:40:24.676Z,12.30
2022-09-24T06:41:24.528Z,12.80
2022-09-24T06:42:24.524Z,12.80
2022-09-24T06:43:24.524Z,13.60
2022-09-24T06:44:24.523Z,13.70
2022-09-24T06:45:24.482Z,13.30
2022-09-24T06:46:24.535Z,12.60
2022-09-24T06:47:24.469Z,15.10
2022-09-24T06:48:24.509Z,15.80
2022-09-24T06:49:24.461Z,15.80
2022-09-24T06:50:24.432Z,14.20
2022-09-24T06:51:24.437Z,16.10
2022-09-24T06:52:24.418Z,15.60
2022-09-24T06:53:24.406Z,16.50
2022-09-24T06:54:24.409Z,17.50
2022-09-24T06:55:24.380Z,17.50
2022-09-24T06:56:24.374Z,18.30
2022-09-24T06:57:28.767Z,15.90
2022-09-24T06:58:24.350Z,14.10
2022-09-24T06:59:24.335Z,14.40
2022-09-24T07:00:24.427Z,17.00
2022-09-24T07:01:24.382Z,18.80
2022-09-24T07:02:24.405Z,18.90
2022-09-24T07:03:24.293Z,16.10
2022-09-24T07:04:24.283Z,13.50
2022-09-24T07:05:24.285Z,14.20
2022-09-24T07:06:24.260Z,16.70
2022-09-24T07:07:24.244Z,14.50
2022-09-24T07:08:24.237Z,15.10
2022-09-24T07:09:24.230Z,15.70
2022-09-24T07:10:24.259Z,15.70
2022-09-24T07:11:24.210Z,17.20
2022-09-24T07:12:24.192Z,15.90
2022-09-24T07:13:24.213Z,13.90
2022-09-24T07:14:24.181Z,15.20
2022-09-24T07:15:24.184Z,15.20
2022-09-24T07:16:24.284Z,17.90
2022-09-24T07:17:24.163Z,18.30
2022-09-24T07:18:24.131Z,16.40
2022-09-24T07:19:24.119Z,20.70
2022-09-24T07:20:24.171Z,15.80
2022-09-24T07:21:24.095Z,14.60
2022-09-24T07:22:24.099Z,15.50
2022-09-24T07:23:24.078Z,13.10
2022-09-24T07:24:24.073Z,16.00
2022-09-24T07:25:24.074Z,15.80
2022-09-24T07:26:24.044Z,17.00
2022-09-24T07:27:24.054Z,17.40
2022-09-24T07:28:24.029Z,16.90
2022-09-24T07:29:24.013Z,15.20
2022-09-24T07:30:24.102Z,16.90
2022-09-24T07:31:24.061Z,16.40
2022-09-24T07:32:28.957Z,17.60
2022-09-24T07:33:23.971Z,17.30
2022-09-24T07:34:23.957Z,17.50
2022-09-24T07:35:23.967Z,16.10
2022-09-24T07:36:23.934Z,18.10
2022-09-24T07:37:23.921Z,19.10
2022-09-24T07:38:23.914Z,16.60
2022-09-24T07:39:23.907Z,16.50
2022-09-24T07:40:24.131Z,16.30
2022-09-24T07:41:23.908Z,18.00
2022-09-24T07:42:23.873Z,14.40
2022-09-24T07:43:23.861Z,18.10
2022-09-24T07:44:23.857Z,17.10
2022-09-24T07:45:23.845Z,15.40
2022-09-24T07:46:23.873Z,17.30
2022-09-24T07:47:23.845Z,19.00
2022-09-24T07:48:23.808Z,14.10
2022-09-24T07:49:23.805Z,14.70
2022-09-24T07:50:23.887Z,15.40
2022-09-24T07:51:23.770Z,17.30
2022-09-24T07:52:23.770Z,14.10
2022-09-24T07:53:23.740Z,17.50
2022-09-24T07:54:23.734Z,14.90
2022-09-24T07:55:23.740Z,16.20
2022-09-24T07:56:23.718Z,17.50
2022-09-24T07:57:23.705Z,16.70
2022-09-24T07:58:23.695Z,16.20
2022-09-24T07:59:23.679Z,16.00
2022-09-24T08:00:23.785Z,16.40
2022-09-24T08:01:23.717Z,16.30
2022-09-24T08:02:23.662Z,19.70
2022-09-24T08:03:23.684Z,19.60
2022-09-24T08:04:23.736Z,17.70
2022-09-24T08:05:23.638Z,18.20
2022-09-24T08:06:23.602Z,16.70
2022-09-24T08:07:23.593Z,15.60
2022-09-24T08:08:23.582Z,18.00
2022-09-24T08:09:23.584Z,16.90
2022-09-24T08:10:23.578Z,18.20
2022-09-24T08:11:23.544Z,19.20
2022-09-24T08:12:23.538Z,17.50
2022-09-24T08:13:27.508Z,16.10
2022-09-24T08:14:23.520Z,19.20
2022-09-24T08:15:23.541Z,19.70
2022-09-24T08:16:23.558Z,16.70
2022-09-24T08:17:23.483Z,16.90
2022-09-24T08:18:23.485Z,17.80
2022-09-24T08:19:23.488Z,17.10
2022-09-24T08:20:23.478Z,18.70
2022-09-24T08:21:23.463Z,18.10
2022-09-24T08:22:23.436Z,18.50
2022-09-24T08:23:23.424Z,19.20
2022-09-24T08:24:23.406Z,19.70
2022-09-24T08:25:23.413Z,16.40
2022-09-24T08:26:23.383Z,16.70
2022-09-24T08:27:23.393Z,16.70
2022-09-24T08:28:23.371Z,18.10
2022-09-24T08:29:23.342Z,20.90
2022-09-24T08:30:23.375Z,18.80
2022-09-24T08:31:23.403Z,19.70
2022-09-24T08:32:23.323Z,19.80
2022-09-24T08:33:23.323Z,17.20
2022-09-24T08:34:23.295Z,19.00
2022-09-24T08:35:23.312Z,17.80
2022-09-24T08:36:23.279Z,19.60
2022-09-24T08:37:23.270Z,19.50
2022-09-24T08:38:23.250Z,19.90
2022-09-24T08:39:23.268Z,16.70
2022-09-24T08:40:23.267Z,19.50
2022-09-24T08:41:23.231Z,22.70
2022-09-24T08:42:23.220Z,20.60
2022-09-24T08:43:23.206Z,18.70
2022-09-24T08:44:23.191Z,19.60
2022-09-24T08:45:23.191Z,20.80
2022-09-24T08:46:23.220Z,22.10
2022-09-24T08:47:23.154Z,21.10
2022-09-24T08:48:23.163Z,19.40
2022-09-24T08:49:23.132Z,24.90
2022-09-24T08:50:23.152Z,21.00
2022-09-24T08:51:23.106Z,23.60
2022-09-24T08:52:23.110Z,19.90
2022-09-24T08:53:23.083Z,20.40
2022-09-24T08:54:23.076Z,18.80
2022-09-24T08:55:23.080Z,21.00
2022-09-24T08:56:23.087Z,19.00
2022-09-24T08:57:23.043Z,19.10
2022-09-24T08:58:23.052Z,18.30
2022-09-24T08:59:23.026Z,20.20
2022-09-24T09:00:23.026Z,19.40
2022-09-24T09:01:23.045Z,19.60
2022-09-24T09:02:23.233Z,18.20
2022-09-24T09:03:22.971Z,19.80
2022-09-24T09:04:22.970Z,19.40
2022-09-24T09:05:22.973Z,21.30
2022-09-24T09:06:22.945Z,17.80
2022-09-24T09:07:22.922Z,17.40
2022-09-24T09:08:50.097Z,19.50
2022-09-24T09:09:23.010Z,19.00
2022-09-24T09:10:22.928Z,21.30
2022-09-24T09:11:22.880Z,19.70
2022-09-24T09:12:22.886Z,18.10
2022-09-24T09:13:22.870Z,20.80
2022-09-24T09:14:22.851Z,18.60
2022-09-24T09:15:22.861Z,19.30
2022-09-24T09:16:22.912Z,19.70
2022-09-24T09:17:22.839Z,19.60
2022-09-24T09:18:22.814Z,19.70
2022-09-24T09:19:22.827Z,17.20
2022-09-24T09:20:22.811Z,20.00
2022-09-24T09:21:22.777Z,17.10
2022-09-24T09:22:22.765Z,18.10
2022-09-24T09:23:22.748Z,19.10
2022-09-24T09:24:22.754Z,21.30
2022-09-24T09:25:22.760Z,19.20
2022-09-24T09:26:22.730Z,20.30
2022-09-24T09:27:22.705Z,17.50
2022-09-24T09:28:22.701Z,21.10
2022-09-24T09:29:22.707Z,16.90
2022-09-24T09:30:22.704Z,18.40
2022-09-24T09:31:22.754Z,18.30
2022-09-24T09:32:22.663Z,19.40
2022-09-24T09:33:22.649Z,19.30
2022-09-24T09:34:22.663Z,18.60
2022-09-24T09:35:22.628Z,22.50
2022-09-24T09:36:22.616Z,21.20
2022-09-24T09:37:25.920Z,18.60
2022-09-24T09:38:22.614Z,19.80
2022-09-24T09:39:22.586Z,20.00
2022-09-24T09:40:24.682Z,21.20
2022-09-24T09:41:22.556Z,21.90
2022-09-24T09:42:22.544Z,21.40
2022-09-24T09:43:22.547Z,17.70
2022-09-24T09:44:22.540Z,18.40
2022-09-24T09:45:27.012Z,17.30
2022-09-24T09:46:22.587Z,19.50
2022-09-24T09:47:22.497Z,18.80
2022-09-24T09:48:22.522Z,21.30
2022-09-24T09:49:22.474Z,20.10
2022-09-24T09:50:22.504Z,19.80
2022-09-24T09:51:23.312Z,18.40
2022-09-24T09:52:22.444Z,21.00
2022-09-24T09:53:22.429Z,16.70
2022-09-24T09:54:22.441Z,18.40
2022-09-24T09:55:22.416Z,18.90
2022-09-24T09:56:22.397Z,18.40
2022-09-24T09:57:22.377Z,18.60
2022-09-24T09:58:22.384Z,18.60
2022-09-24T09:59:27.171Z,19.00
2022-09-24T10:00:22.379Z,18.70
2022-09-24T10:01:22.337Z,19.00
2022-09-24T10:02:22.525Z,19.20
2022-09-24T10:03:22.389Z,18.10
2022-09-24T10:04:22.310Z,21.00
2022-09-24T10:05:27.232Z,22.20
2022-09-24T10:06:22.281Z,17.20
2022-09-24T10:07:22.270Z,19.80
2022-09-24T10:08:22.273Z,19.90
2022-09-24T10:09:22.242Z,18.50
2022-09-24T10:10:22.263Z,20.50
2022-09-24T10:11:22.228Z,18.50
2022-09-24T10:12:22.297Z,22.40
2022-09-24T10:13:22.209Z,18.10
2022-09-24T10:14:22.206Z,19.40
2022-09-24T10:15:22.203Z,18.00
2022-09-24T10:16:22.250Z,18.70
2022-09-24T10:17:22.165Z,21.70
2022-09-24T10:18:22.152Z,20.00
2022-09-24T10:19:22.136Z,21.90
2022-09-24T10:20:22.158Z,19.90
2022-09-24T10:21:26.106Z,19.40
2022-09-24T10:22:22.112Z,19.70
2022-09-24T10:23:22.110Z,21.80
2022-09-24T10:24:22.094Z,19.60
2022-09-24T10:25:22.108Z,22.60
2022-09-24T10:26:22.072Z,20.70
2022-09-24T10:27:22.050Z,19.90
2022-09-24T10:28:22.044Z,18.60
2022-09-24T10:29:22.044Z,22.20
2022-09-24T10:30:22.037Z,22.10
2022-09-24T10:31:22.113Z,22.40
2022-09-24T10:32:22.005Z,23.70
2022-09-24T10:33:21.990Z,21.70
2022-09-24T10:34:21.979Z,21.80
2022-09-24T10:35:21.967Z,21.00
2022-09-24T10:36:21.961Z,24.80
2022-09-24T10:37:21.942Z,22.70
2022-09-24T10:38:21.939Z,23.50
2022-09-24T10:39:21.922Z,22.40
2022-09-24T10:40:21.977Z,23.40
2022-09-24T10:41:21.916Z,23.20
2022-09-24T10:42:21.906Z,24.10
2022-09-24T10:43:21.898Z,24.90
2022-09-24T10:44:21.869Z,23.50
2022-09-24T10:45:21.877Z,23.40
2022-09-24T10:46:21.969Z,23.50
2022-09-24T10:47:21.829Z,26.80
2022-09-24T10:48:21.830Z,25.20
2022-09-24T10:49:21.810Z,22.60
2022-09-24T10:50:21.818Z,22.30
2022-09-24T10:51:25.337Z,24.90
2022-09-24T10:52:21.787Z,24.30
2022-09-24T10:53:21.766Z,24.80
2022-09-24T10:54:21.756Z,23.80
2022-09-24T10:55:21.798Z,23.00
2022-09-24T10:56:21.741Z,21.50
2022-09-24T10:57:21.725Z,23.80
2022-09-24T10:58:21.715Z,24.80
2022-09-24T10:59:21.704Z,23.30
2022-09-24T11:00:21.704Z,22.60
2022-09-24T11:01:21.737Z,22.50
2022-09-24T11:02:21.805Z,21.20
2022-09-24T11:03:21.764Z,22.10
2022-09-24T11:04:21.648Z,24.40
2022-09-24T11:05:21.664Z,22.20
2022-09-24T11:06:21.629Z,22.10
2022-09-24T11:07:21.621Z,22.80
2022-09-24T11:08:21.610Z,22.60
2022-09-24T11:09:21.583Z,22.60
2022-09-24T11:10:21.593Z,21.10
2022-09-24T11:11:21.578Z,25.40
2022-09-24T11:12:21.560Z,21.60
2022-09-24T11:13:21.552Z,21.40
2022-09-24T11:14:21.565Z,23.50
2022-09-24T11:15:21.546Z,24.20
2022-09-24T11:16:28.101Z,23.30
2022-09-24T11:17:21.499Z,25.40
2022-09-24T11:18:21.488Z,24.70
2022-09-24T11:19:21.477Z,23.80
2022-09-24T11:20:21.490Z,23.80
2022-09-24T11:21:21.455Z,21.80
2022-09-24T11:22:21.449Z,21.10
2022-09-24T11:23:21.438Z,24.10
2022-09-24T11:24:21.439Z,24.50
2022-09-24T11:25:21.429Z,24.50
2022-09-24T11:26:21.412Z,24.30
2022-09-24T11:27:21.400Z,23.70
2022-09-24T11:28:21.395Z,22.50
2022-09-24T11:29:21.368Z,23.50
2022-09-24T11:30:21.382Z,21.40
2022-09-24T11:31:21.412Z,21.50
2022-09-24T11:32:21.338Z,22.90
2022-09-24T11:33:23.135Z,23.70
2022-09-24T11:34:21.325Z,23.60
2022-09-24T11:35:21.321Z,24.30
2022-09-24T11:36:21.294Z,24.60
2022-09-24T11:37:21.295Z,23.10
2022-09-24T11:38:21.279Z,20.40
2022-09-24T11:39:21.282Z,25.00
2022-09-24T11:40:21.315Z,23.10
2022-09-24T11:41:21.249Z,21.30
2022-09-24T11:42:21.250Z,23.90
2022-09-24T11:43:21.226Z,22.00
2022-09-24T11:44:21.221Z,22.10
2022-09-24T11:45:21.216Z,23.30
2022-09-24T11:46:21.275Z,22.20
2022-09-24T11:47:21.184Z,21.40
2022-09-24T11:48:21.178Z,21.10
2022-09-24T11:49:21.157Z,23.30
2022-09-24T11:50:21.167Z,21.80
2022-09-24T11:51:21.129Z,22.30
2022-09-24T11:52:21.132Z,21.00
2022-09-24T11:53:21.115Z,23.80
2022-09-24T11:54:21.105Z,20.40
2022-09-24T11:55:21.117Z,21.90
2022-09-24T11:56:21.083Z,19.00
2022-09-24T11:57:21.066Z,18.60
2022-09-24T11:58:21.062Z,22.50
2022-09-24T11:59:21.045Z,20.60
2022-09-24T12:00:21.053Z,21.10
2022-09-24T12:01:21.159Z,22.50
2022-09-24T12:02:21.100Z,20.20
2022-09-24T12:03:25.896Z,22.90
2022-09-24T12:04:21.010Z,19.70
2022-09-24T12:05:20.972Z,19.60
2022-09-24T12:06:20.999Z,19.10
2022-09-24T12:07:20.956Z,19.20
2022-09-24T12:08:20.959Z,21.00
2022-09-24T12:09:20.935Z,21.50
2022-09-24T12:10:20.921Z,21.80
2022-09-24T12:11:20.947Z,19.90
2022-09-24T12:12:20.907Z,21.00
2022-09-24T12:13:20.889Z,23.30
2022-09-24T12:14:20.877Z,21.00
2022-09-24T12:15:20.863Z,19.70
2022-09-24T12:16:20.971Z,19.50
2022-09-24T12:17:20.843Z,20.20
2022-09-24T12:18:20.850Z,21.30
2022-09-24T12:19:20.818Z,20.00
2022-09-24T12:20:20.815Z,22.40
2022-09-24T12:21:20.824Z,19.90
2022-09-24T12:22:20.789Z,18.60
2022-09-24T12:23:20.789Z,18.30
2022-09-24T12:24:20.765Z,20.40
2022-09-24T12:25:20.756Z,20.80
2022-09-24T12:26:20.759Z,19.50
2022-09-24T12:27:20.735Z,21.20
2022-09-24T12:28:20.719Z,21.00
2022-09-24T12:29:20.719Z,23.40
2022-09-24T12:30:20.721Z,21.10
2022-09-24T12:31:20.794Z,23.10
2022-09-24T12:32:20.683Z,21.80
2022-09-24T12:33:20.667Z,21.10
2022-09-24T12:34:20.668Z,19.30
2022-09-24T12:35:20.656Z,18.30
2022-09-24T12:36:20.650Z,18.70
2022-09-24T12:37:20.631Z,21.30
2022-09-24T12:38:20.644Z,19.60
2022-09-24T12:39:20.613Z,20.00
2022-09-24T12:40:20.748Z,21.20
2022-09-24T12:41:20.593Z,19.40
2022-09-24T12:42:20.587Z,21.10
2022-09-24T12:43:20.566Z,19.90
2022-09-24T12:44:22.338Z,20.20
2022-09-24T12:45:20.532Z,18.40
2022-09-24T12:46:20.599Z,22.50
2022-09-24T12:47:20.513Z,23.20
2022-09-24T12:48:20.529Z,19.50
2022-09-24T12:49:20.498Z,20.70
2022-09-24T12:50:20.486Z,21.80
2022-09-24T12:51:20.489Z,19.80
2022-09-24T12:52:20.466Z,22.30
2022-09-24T12:53:20.454Z,19.00
2022-09-24T12:54:20.438Z,20.00
2022-09-24T12:55:20.429Z,22.20
2022-09-24T12:56:20.430Z,18.10
2022-09-24T12:57:25.259Z,20.50
2022-09-24T12:58:20.408Z,21.20
2022-09-24T12:59:20.382Z,21.70